Time;durP1;ratioP1;P1;durP2;ratioP2;P2;SDS_P1;SDS_P2;PMS_P1;PMS_P2;Temp;Humidity;BMP_temperature;BMP_pressure;BME280_temperature;BME280_humidity;BME280_pressure;Samples;Min_cycle;Max_cycle;Signal;HPM_P1;HPM_P2
2024/03/26 00:01:22;0.00;0.00;0.62;0.00;0.00;0.62;2.63;2.03;;;21.80;21.70;;;;;;2271568;61;20347;-66
2024/03/26 00:03:48;0.00;0.00;0.62;0.00;0.00;0.62;4.33;2.33;;;21.70;21.60;;;;;;2271401;61;20393;-66
2024/03/26 00:06:16;0.00;0.00;0.62;0.00;0.00;0.62;5.33;2.90;;;21.70;21.60;;;;;;2271796;61;20955;-66
2024/03/26 00:08:42;0.00;0.00;0.62;0.00;0.00;0.62;3.20;2.00;;;21.80;21.70;;;;;;2271759;61;20364;-66
2024/03/26 00:11:08;0.00;0.00;0.62;0.00;0.00;0.62;3.63;1.73;;;21.70;21.60;;;;;;2271389;61;20413;-66
2024/03/26 00:13:34;0.00;0.00;0.62;0.00;0.00;0.62;3.60;2.17;;;21.70;21.60;;;;;;2271583;60;20480;-66
2024/03/26 00:16:00;0.00;0.00;0.62;0.00;0.00;0.62;3.83;2.20;;;21.70;21.60;;;;;;2271778;61;20853;-66
2024/03/26 00:18:26;0.00;0.00;0.62;0.00;0.00;0.62;3.10;1.90;;;21.70;21.70;;;;;;2270780;61;20358;-66
2024/03/26 00:20:52;0.00;0.00;0.62;0.00;0.00;0.62;3.90;1.80;;;21.70;21.60;;;;;;2272154;61;20362;-66
2024/03/26 00:23:20;0.00;0.00;0.62;0.00;0.00;0.62;3.10;1.73;;;21.70;21.60;;;;;;2271486;61;20769;-65
2024/03/26 00:25:48;0.00;0.00;0.62;0.00;0.00;0.62;3.93;2.03;;;21.70;21.60;;;;;;2271276;61;20771;-65
2024/03/26 00:28:15;0.00;0.00;0.62;0.00;0.00;0.62;3.50;1.83;;;21.70;21.60;;;;;;2271801;61;20442;-66
2024/03/26 00:30:41;0.00;0.00;0.62;0.00;0.00;0.62;4.83;2.40;;;21.70;21.60;;;;;;2271006;61;20355;-66
2024/03/26 00:33:07;0.00;0.00;0.62;0.00;0.00;0.62;2.70;1.90;;;21.70;21.60;;;;;;2271150;61;20394;-66
2024/03/26 00:35:34;0.00;0.00;0.62;0.00;0.00;0.62;4.47;2.33;;;21.70;21.60;;;;;;2271156;61;20343;-66
2024/03/26 00:38:00;0.00;0.00;0.62;0.00;0.00;0.62;2.67;2.20;;;21.70;21.60;;;;;;2271414;61;20379;-66
2024/03/26 00:40:28;0.00;0.00;0.62;0.00;0.00;0.62;3.90;2.40;;;21.60;21.50;;;;;;2271438;61;20363;-65
2024/03/26 00:42:55;0.00;0.00;0.62;0.00;0.00;0.62;4.30;1.93;;;21.60;21.50;;;;;;2271537;61;20367;-66
2024/03/26 00:45:21;0.00;0.00;0.62;0.00;0.00;0.62;2.63;1.77;;;21.70;21.60;;;;;;2271403;61;20379;-66
2024/03/26 00:47:48;0.00;0.00;0.62;0.00;0.00;0.62;3.33;1.80;;;21.70;21.60;;;;;;2271433;61;20424;-66
2024/03/26 00:50:14;0.00;0.00;0.62;0.00;0.00;0.62;3.27;1.90;;;21.70;21.60;;;;;;2271830;61;20400;-66
2024/03/26 00:52:40;0.00;0.00;0.62;0.00;0.00;0.62;2.50;1.70;;;21.60;21.50;;;;;;2271475;61;20446;-64
2024/03/26 00:55:07;0.00;0.00;0.62;0.00;0.00;0.62;3.20;2.10;;;21.60;21.50;;;;;;2271451;61;20363;-65
2024/03/26 00:57:34;0.00;0.00;0.62;0.00;0.00;0.62;3.33;2.10;;;21.60;21.50;;;;;;2271603;61;20428;-65
2024/03/26 01:00:01;0.00;0.00;0.62;0.00;0.00;0.62;3.00;2.00;;;21.60;21.50;;;;;;2271331;61;20351;-65
2024/03/26 01:02:27;0.00;0.00;0.62;0.00;0.00;0.62;4.90;2.60;;;21.60;21.50;;;;;;2271071;61;20386;-65
2024/03/26 01:04:53;0.00;0.00;0.62;0.00;0.00;0.62;3.50;2.40;;;21.60;21.50;;;;;;2271460;61;20359;-66
2024/03/26 01:07:19;0.00;0.00;0.62;0.00;0.00;0.62;2.40;1.67;;;21.60;21.50;;;;;;2271605;61;20367;-65
2024/03/26 01:09:45;0.00;0.00;0.62;0.00;0.00;0.62;3.30;2.20;;;21.60;21.50;;;;;;2271410;61;20404;-65
2024/03/26 01:12:11;0.00;0.00;0.62;0.00;0.00;0.62;3.43;1.80;;;21.60;21.50;;;;;;2271554;61;20930;-65
2024/03/26 01:14:39;0.00;0.00;0.62;0.00;0.00;0.62;2.67;1.80;;;21.60;21.50;;;;;;2271323;61;20350;-65
2024/03/26 01:17:05;0.00;0.00;0.62;0.00;0.00;0.62;2.50;1.80;;;21.60;21.50;;;;;;2271299;61;20458;-66
2024/03/26 01:19:31;0.00;0.00;0.62;0.00;0.00;0.62;3.93;1.97;;;21.60;21.50;;;;;;2271508;61;20482;-65
2024/03/26 01:21:57;0.00;0.00;0.62;0.00;0.00;0.62;3.40;2.10;;;21.60;21.50;;;;;;2271458;61;20347;-65
2024/03/26 01:24:23;0.00;0.00;0.62;0.00;0.00;0.62;3.03;1.90;;;21.60;21.50;;;;;;2271583;60;20434;-66
2024/03/26 01:26:49;0.00;0.00;0.62;0.00;0.00;0.62;2.83;2.10;;;21.60;21.50;;;;;;2272127;61;20381;-66
2024/03/26 01:29:15;0.00;0.00;0.62;0.00;0.00;0.62;4.37;2.10;;;21.60;21.50;;;;;;2272574;61;20355;-66
2024/03/26 01:31:43;0.00;0.00;0.62;0.00;0.00;0.62;2.40;1.70;;;21.60;21.50;;;;;;2271956;61;20350;-66
2024/03/26 01:34:09;0.00;0.00;0.62;0.00;0.00;0.62;3.23;2.00;;;21.50;21.40;;;;;;2271882;61;21114;-66
2024/03/26 01:36:35;0.00;0.00;0.62;0.00;0.00;0.62;3.97;2.30;;;21.60;21.50;;;;;;2271911;61;20369;-66
2024/03/26 01:39:01;0.00;0.00;0.62;0.00;0.00;0.62;2.90;1.50;;;21.50;21.50;;;;;;2272288;61;20421;-64
2024/03/26 01:41:27;0.00;0.00;0.62;0.00;0.00;0.62;2.80;1.70;;;21.50;21.50;;;;;;2272205;61;20347;-66
2024/03/26 01:43:54;0.00;0.00;0.62;0.00;0.00;0.62;2.90;1.77;;;21.50;21.50;;;;;;2272212;61;20365;-66
2024/03/26 01:46:20;0.00;0.00;0.62;0.00;0.00;0.62;3.93;2.00;;;21.60;21.50;;;;;;2271856;61;20386;-66
2024/03/26 01:48:48;0.00;0.00;0.62;0.00;0.00;0.62;3.27;1.70;;;21.50;21.50;;;;;;2272140;61;20390;-66
2024/03/26 01:51:14;0.00;0.00;0.62;0.00;0.00;0.62;3.53;1.63;;;21.50;21.40;;;;;;2272161;61;20442;-66
2024/03/26 01:53:40;0.00;0.00;0.62;0.00;0.00;0.62;3.60;1.73;;;21.50;21.50;;;;;;2271881;61;20357;-66
2024/03/26 01:56:07;0.00;0.00;0.62;0.00;0.00;0.62;4.10;1.83;;;21.50;21.40;;;;;;2272032;61;20360;-66
2024/03/26 01:58:33;0.00;0.00;0.62;0.00;0.00;0.62;2.70;1.83;;;21.50;21.40;;;;;;2271870;61;20362;-66
2024/03/26 02:01:01;0.00;0.00;0.62;0.00;0.00;0.62;3.47;1.97;;;21.50;21.40;;;;;;2271595;61;20355;-66
2024/03/26 02:03:27;0.00;0.00;0.62;0.00;0.00;0.62;2.73;1.70;;;21.50;21.40;;;;;;2271317;61;20355;-66
2024/03/26 02:05:55;0.00;0.00;0.62;0.00;0.00;0.62;3.10;1.93;;;21.50;21.50;;;;;;2271952;61;20385;-66
2024/03/26 02:08:21;0.00;0.00;0.62;0.00;0.00;0.62;3.00;1.80;;;21.50;21.40;;;;;;2271902;61;20363;-66
2024/03/26 02:10:47;0.00;0.00;0.62;0.00;0.00;0.62;3.33;2.07;;;21.40;21.40;;;;;;2272130;61;20359;-66
2024/03/26 02:13:13;0.00;0.00;0.62;0.00;0.00;0.62;3.23;1.93;;;21.50;21.40;;;;;;2271843;61;20361;-66
2024/03/26 02:15:40;0.00;0.00;0.62;0.00;0.00;0.62;2.77;1.80;;;21.50;21.40;;;;;;2271944;61;20344;-66
2024/03/26 02:18:06;0.00;0.00;0.62;0.00;0.00;0.62;3.00;1.60;;;21.40;21.40;;;;;;2271951;61;20366;-66
2024/03/26 02:20:32;0.00;0.00;0.62;0.00;0.00;0.62;2.80;2.07;;;21.50;21.40;;;;;;2272246;61;20362;-66
2024/03/26 02:23:00;0.00;0.00;0.62;0.00;0.00;0.62;2.83;1.90;;;21.40;21.40;;;;;;2271791;61;20383;-64
2024/03/26 02:25:26;0.00;0.00;0.62;0.00;0.00;0.62;3.03;1.50;;;21.40;21.40;;;;;;2271833;61;20378;-66
2024/03/26 02:27:54;0.00;0.00;0.62;0.00;0.00;0.62;2.80;1.80;;;21.40;21.40;;;;;;2271701;61;20411;-66
2024/03/26 02:30:20;0.00;0.00;0.62;0.00;0.00;0.62;2.40;1.40;;;21.40;21.40;;;;;;2271892;61;20350;-66
2024/03/26 02:32:46;0.00;0.00;0.62;0.00;0.00;0.62;3.43;1.70;;;21.40;21.40;;;;;;2271959;61;20771;-66
2024/03/26 02:35:12;0.00;0.00;0.62;0.00;0.00;0.62;2.33;1.43;;;21.40;21.40;;;;;;2271913;60;20375;-66
2024/03/26 02:37:38;0.00;0.00;0.62;0.00;0.00;0.62;2.00;1.33;;;21.40;21.40;;;;;;2271543;61;20403;-66
2024/03/26 02:40:06;0.00;0.00;0.62;0.00;0.00;0.62;1.93;1.30;;;21.40;21.30;;;;;;2272148;61;20857;-66
2024/03/26 02:42:32;0.00;0.00;0.62;0.00;0.00;0.62;2.53;1.60;;;21.40;21.40;;;;;;2271899;61;20362;-65
2024/03/26 02:45:00;0.00;0.00;0.62;0.00;0.00;0.62;2.67;1.83;;;21.40;21.30;;;;;;2271730;61;20428;-66
2024/03/26 02:47:26;0.00;0.00;0.62;0.00;0.00;0.62;2.33;1.40;;;21.40;21.30;;;;;;2270506;61;20445;-65
2024/03/26 02:49:52;0.00;0.00;0.62;0.00;0.00;0.62;2.60;1.67;;;21.40;21.30;;;;;;2267704;61;20344;-65
2024/03/26 02:52:18;0.00;0.00;0.62;0.00;0.00;0.62;3.40;1.93;;;21.40;21.30;;;;;;2267385;61;20751;-66
2024/03/26 02:54:44;0.00;0.00;0.62;0.00;0.00;0.62;5.37;1.83;;;21.40;21.30;;;;;;2265583;61;20888;-66
2024/03/26 02:57:10;0.00;0.00;0.62;0.00;0.00;0.62;2.33;1.50;;;21.40;21.30;;;;;;2267290;61;20379;-65
2024/03/26 02:59:37;0.00;0.00;0.62;0.00;0.00;0.62;4.13;1.83;;;21.30;21.30;;;;;;2266961;61;20345;-65
2024/03/26 03:02:04;0.00;0.00;0.62;0.00;0.00;0.62;3.10;1.63;;;21.30;21.30;;;;;;2266911;61;20887;-65
2024/03/26 03:04:30;0.00;0.00;0.62;0.00;0.00;0.62;3.60;1.60;;;21.30;21.30;;;;;;2267896;61;20359;-65
2024/03/26 03:06:56;0.00;0.00;0.62;0.00;0.00;0.62;1.90;1.57;;;21.40;21.30;;;;;;2267773;61;20368;-64
2024/03/26 03:09:22;0.00;0.00;0.62;0.00;0.00;0.62;2.63;1.80;;;21.30;21.30;;;;;;2267918;61;20379;-65
2024/03/26 03:11:49;0.00;0.00;0.62;0.00;0.00;0.62;2.83;1.47;;;21.30;21.30;;;;;;2267329;61;20387;-66
2024/03/26 03:14:15;0.00;0.00;0.62;0.00;0.00;0.62;3.93;1.73;;;21.30;21.30;;;;;;2267466;61;20528;-65
2024/03/26 03:16:41;0.00;0.00;0.62;0.00;0.00;0.62;2.30;1.47;;;21.30;21.30;;;;;;2267363;61;20382;-65
2024/03/26 03:19:09;0.00;0.00;0.62;0.00;0.00;0.62;2.60;1.53;;;21.30;21.80;;;;;;2267565;61;20424;-65
2024/03/26 03:21:35;0.00;0.00;0.62;0.00;0.00;0.62;1.93;1.10;;;21.30;21.20;;;;;;2267922;61;20405;-65
2024/03/26 03:24:01;0.00;0.00;0.62;0.00;0.00;0.62;2.10;1.57;;;21.30;21.20;;;;;;2267750;61;20363;-65
2024/03/26 03:26:27;0.00;0.00;0.62;0.00;0.00;0.62;2.90;1.30;;;21.30;21.20;;;;;;2267500;61;20415;-66
2024/03/26 03:28:53;0.00;0.00;0.62;0.00;0.00;0.62;3.73;1.73;;;21.30;21.20;;;;;;2267667;61;20368;-65
2024/03/26 03:31:19;0.00;0.00;0.62;0.00;0.00;0.62;2.53;1.50;;;21.30;21.20;;;;;;2267741;61;20366;-64
2024/03/26 03:33:45;0.00;0.00;0.62;0.00;0.00;0.62;2.43;1.60;;;21.30;21.20;;;;;;2267499;61;20352;-65
2024/03/26 03:36:13;0.00;0.00;0.62;0.00;0.00;0.62;3.90;1.77;;;21.30;21.20;;;;;;2267598;61;20383;-65
2024/03/26 03:38:39;0.00;0.00;0.62;0.00;0.00;0.62;2.87;1.80;;;21.30;21.20;;;;;;2267598;61;20429;-65
2024/03/26 03:41:05;0.00;0.00;0.62;0.00;0.00;0.62;3.27;1.70;;;21.30;21.20;;;;;;2267635;61;20375;-64
2024/03/26 03:43:31;0.00;0.00;0.62;0.00;0.00;0.62;3.80;2.00;;;21.30;21.20;;;;;;2267576;61;20397;-65
2024/03/26 03:45:57;0.00;0.00;0.62;0.00;0.00;0.62;2.57;1.70;;;21.30;21.20;;;;;;2267540;61;20380;-65
2024/03/26 03:48:23;0.00;0.00;0.62;0.00;0.00;0.62;2.43;1.90;;;21.30;21.20;;;;;;2267462;61;20443;-64
2024/03/26 03:50:49;0.00;0.00;0.62;0.00;0.00;0.62;2.37;1.77;;;21.30;21.20;;;;;;2267561;61;20409;-65
2024/03/26 03:53:17;0.00;0.00;0.62;0.00;0.00;0.62;2.77;1.80;;;21.30;21.20;;;;;;2267590;61;20425;-65
2024/03/26 03:55:43;0.00;0.00;0.62;0.00;0.00;0.62;2.03;1.30;;;21.30;21.80;;;;;;2267683;61;20360;-65
2024/03/26 03:58:10;0.00;0.00;0.62;0.00;0.00;0.62;2.13;1.30;;;21.30;21.20;;;;;;2267262;61;20894;-65
2024/03/26 04:00:36;0.00;0.00;0.62;0.00;0.00;0.62;3.90;2.17;;;21.20;21.20;;;;;;2267704;61;20352;-65
2024/03/26 04:03:03;0.00;0.00;0.62;0.00;0.00;0.62;2.93;1.47;;;21.30;21.20;;;;;;2266930;61;20447;-65
2024/03/26 04:05:29;0.00;0.00;0.62;0.00;0.00;0.62;2.30;1.70;;;21.20;21.20;;;;;;2267714;61;20368;-65
2024/03/26 04:07:55;0.00;0.00;0.62;0.00;0.00;0.62;5.33;2.20;;;21.20;21.20;;;;;;2267451;61;20376;-65
2024/03/26 04:10:22;0.00;0.00;0.62;0.00;0.00;0.62;2.63;1.70;;;21.20;21.20;;;;;;2267504;61;20344;-63
2024/03/26 04:12:49;0.00;0.00;0.62;0.00;0.00;0.62;3.40;1.70;;;21.20;21.10;;;;;;2267672;61;20403;-65
2024/03/26 04:15:15;0.00;0.00;0.62;0.00;0.00;0.62;2.40;1.50;;;21.20;21.10;;;;;;2267450;61;20703;-65
2024/03/26 04:17:41;0.00;0.00;0.62;0.00;0.00;0.62;3.80;2.13;;;21.20;21.10;;;;;;2267262;61;20964;-66
2024/03/26 04:20:09;0.00;0.00;0.62;0.00;0.00;0.62;5.87;1.97;;;21.20;21.20;;;;;;2267618;61;20448;-65
2024/03/26 04:22:35;0.00;0.00;0.62;0.00;0.00;0.62;3.10;1.83;;;21.20;21.10;;;;;;2267502;61;20406;-64
2024/03/26 04:25:01;0.00;0.00;0.62;0.00;0.00;0.62;2.83;1.40;;;21.20;21.10;;;;;;2267425;61;20425;-65
2024/03/26 04:27:28;0.00;0.00;0.62;0.00;0.00;0.62;3.30;1.77;;;21.20;21.20;;;;;;2267364;61;20376;-65
2024/03/26 04:29:54;0.00;0.00;0.62;0.00;0.00;0.62;3.03;1.93;;;21.20;21.20;;;;;;2267506;61;20991;-65
2024/03/26 04:32:20;0.00;0.00;0.62;0.00;0.00;0.62;3.30;1.70;;;21.20;21.20;;;;;;2267185;61;20356;-65
2024/03/26 04:34:47;0.00;0.00;0.62;0.00;0.00;0.62;6.90;2.33;;;21.20;21.10;;;;;;2267515;61;20886;-65
2024/03/26 04:37:13;0.00;0.00;0.62;0.00;0.00;0.62;3.73;1.73;;;21.20;21.10;;;;;;2267439;61;20838;-64
2024/03/26 04:39:39;0.00;0.00;0.62;0.00;0.00;0.62;2.37;1.57;;;21.20;21.20;;;;;;2270094;61;20365;-65
2024/03/26 04:42:05;0.00;0.00;0.62;0.00;0.00;0.62;3.20;1.80;;;21.10;21.10;;;;;;2271454;61;20442;-63
2024/03/26 04:44:32;0.00;0.00;0.62;0.00;0.00;0.62;2.33;1.53;;;21.20;21.20;;;;;;2271467;61;20677;-65
2024/03/26 04:46:58;0.00;0.00;0.62;0.00;0.00;0.62;5.03;1.53;;;21.20;21.20;;;;;;2271492;61;20383;-65
2024/03/26 04:49:25;0.00;0.00;0.62;0.00;0.00;0.62;3.30;1.80;;;21.20;21.10;;;;;;2271445;61;20968;-64
2024/03/26 04:51:51;0.00;0.00;0.62;0.00;0.00;0.62;2.17;1.53;;;21.20;21.10;;;;;;2271661;61;20355;-65
2024/03/26 04:54:17;0.00;0.00;0.62;0.00;0.00;0.62;3.20;1.53;;;21.20;21.10;;;;;;2271040;61;20998;-63
2024/03/26 04:56:43;0.00;0.00;0.62;0.00;0.00;0.62;2.83;1.70;;;21.20;21.20;;;;;;2271177;61;20664;-64
2024/03/26 04:59:10;0.00;0.00;0.62;0.00;0.00;0.62;3.30;1.50;;;21.10;21.10;;;;;;2271347;61;20411;-64
2024/03/26 05:01:38;0.00;0.00;0.62;0.00;0.00;0.62;2.60;1.70;;;21.10;21.60;;;;;;2270975;61;20403;-65
2024/03/26 05:04:04;0.00;0.00;0.62;0.00;0.00;0.62;3.30;1.30;;;21.10;21.10;;;;;;2271215;61;20378;-64
2024/03/26 05:06:30;0.00;0.00;0.62;0.00;0.00;0.62;3.37;1.80;;;21.10;21.10;;;;;;2271637;61;20379;-64
2024/03/26 05:08:56;0.00;0.00;0.62;0.00;0.00;0.62;3.10;1.50;;;21.10;21.10;;;;;;2271227;61;20454;-64
2024/03/26 05:11:23;0.00;0.00;0.62;0.00;0.00;0.62;2.53;1.80;;;21.10;21.10;;;;;;2271366;61;20442;-64
2024/03/26 05:13:49;0.00;0.00;0.62;0.00;0.00;0.62;2.30;1.57;;;21.10;21.10;;;;;;2271358;61;20355;-65
2024/03/26 05:16:15;0.00;0.00;0.62;0.00;0.00;0.62;2.60;1.50;;;21.10;21.10;;;;;;2271046;61;20896;-65
2024/03/26 05:18:42;0.00;0.00;0.62;0.00;0.00;0.62;3.37;1.77;;;21.10;21.10;;;;;;2271322;61;20418;-65
2024/03/26 05:21:09;0.00;0.00;0.62;0.00;0.00;0.62;2.40;1.60;;;21.10;21.10;;;;;;2271593;61;20783;-64
2024/03/26 05:23:35;0.00;0.00;0.62;0.00;0.00;0.62;3.00;1.93;;;21.10;21.10;;;;;;2271151;61;20633;-65
2024/03/26 05:26:01;0.00;0.00;0.62;0.00;0.00;0.62;3.23;1.97;;;21.10;21.10;;;;;;2271256;61;20444;-64
2024/03/26 05:28:27;0.00;0.00;0.62;0.00;0.00;0.62;2.60;1.50;;;21.10;21.10;;;;;;2271612;61;20394;-65
2024/03/26 05:30:53;0.00;0.00;0.62;0.00;0.00;0.62;2.97;1.70;;;21.10;21.10;;;;;;2271272;61;20351;-64
2024/03/26 05:33:19;0.00;0.00;0.62;0.00;0.00;0.62;4.07;2.27;;;21.10;21.10;;;;;;2271241;61;20343;-65
2024/03/26 05:35:47;0.00;0.00;0.62;0.00;0.00;0.62;3.20;1.70;;;21.10;21.10;;;;;;2271502;61;20339;-65
2024/03/26 05:38:13;0.00;0.00;0.62;0.00;0.00;0.62;3.77;1.87;;;21.10;21.10;;;;;;2271152;61;20419;-65
2024/03/26 05:40:42;0.00;0.00;0.62;0.00;0.00;0.62;3.63;1.70;;;21.10;21.10;;;;;;2271318;61;20804;-65
2024/03/26 05:43:08;0.00;0.00;0.62;0.00;0.00;0.62;3.57;2.03;;;21.00;21.00;;;;;;2271608;61;20370;-65
2024/03/26 05:45:36;0.00;0.00;0.62;0.00;0.00;0.62;3.40;1.97;;;21.10;21.10;;;;;;2271102;61;20402;-66
2024/03/26 05:48:03;0.00;0.00;0.62;0.00;0.00;0.62;4.20;2.10;;;21.10;21.10;;;;;;2271168;61;20371;-65
2024/03/26 05:50:29;0.00;0.00;0.62;0.00;0.00;0.62;4.73;2.57;;;21.10;21.10;;;;;;2271545;61;20355;-65
2024/03/26 05:52:58;0.00;0.00;0.62;0.00;0.00;0.62;3.87;2.50;;;21.10;21.10;;;;;;2270845;61;20343;-65
2024/03/26 05:55:25;0.00;0.00;0.62;0.00;0.00;0.62;4.50;2.97;;;21.00;21.10;;;;;;2271366;61;20865;-64
2024/03/26 05:57:51;0.00;0.00;0.62;0.00;0.00;0.62;4.03;2.30;;;21.10;21.10;;;;;;2271380;61;20378;-64
2024/03/26 06:00:18;0.00;0.00;0.62;0.00;0.00;0.62;5.50;3.10;;;21.10;21.10;;;;;;2270606;61;20853;-65
2024/03/26 06:02:44;0.00;0.00;0.62;0.00;0.00;0.62;4.77;2.80;;;21.00;21.10;;;;;;2271000;61;20802;-64
2024/03/26 06:05:10;0.00;0.00;0.62;0.00;0.00;0.62;5.90;2.70;;;21.00;21.10;;;;;;2271422;61;20466;-65
2024/03/26 06:07:36;0.00;0.00;0.62;0.00;0.00;0.62;4.60;3.00;;;21.00;21.10;;;;;;2271026;61;20806;-65
2024/03/26 06:10:05;0.00;0.00;0.62;0.00;0.00;0.62;4.60;3.40;;;21.00;21.10;;;;;;2271437;60;20358;-65
2024/03/26 06:12:31;0.00;0.00;0.62;0.00;0.00;0.62;6.57;3.77;;;21.00;21.10;;;;;;2271976;61;20370;-65
2024/03/26 06:14:57;0.00;0.00;0.62;0.00;0.00;0.62;6.30;3.40;;;21.00;21.10;;;;;;2271762;61;20407;-65
2024/03/26 06:17:23;0.00;0.00;0.62;0.00;0.00;0.62;4.80;3.33;;;21.00;21.10;;;;;;2271992;61;20363;-65
2024/03/26 06:19:49;0.00;0.00;0.62;0.00;0.00;0.62;5.50;3.20;;;21.00;21.10;;;;;;2272219;61;20373;-65
2024/03/26 06:22:16;0.00;0.00;0.62;0.00;0.00;0.62;4.30;3.30;;;21.00;21.60;;;;;;2271532;61;20355;-66
2024/03/26 06:24:42;0.00;0.00;0.62;0.00;0.00;0.62;6.87;3.70;;;21.00;21.10;;;;;;2271927;61;20760;-65
2024/03/26 06:27:10;0.00;0.00;0.62;0.00;0.00;0.62;4.80;3.50;;;21.00;21.10;;;;;;2271848;61;20782;-64
2024/03/26 06:29:37;0.00;0.00;0.62;0.00;0.00;0.62;3.80;3.40;;;21.00;21.10;;;;;;2271593;61;20956;-65
2024/03/26 06:32:03;0.00;0.00;0.62;0.00;0.00;0.62;4.80;3.17;;;21.00;21.10;;;;;;2271848;61;20355;-65
2024/03/26 06:34:30;0.00;0.00;0.62;0.00;0.00;0.62;3.07;2.40;;;21.00;21.10;;;;;;2271768;61;20396;-65
2024/03/26 06:36:56;0.00;0.00;0.62;0.00;0.00;0.62;5.30;2.97;;;21.00;21.10;;;;;;2271439;61;20893;-65
2024/03/26 06:39:22;0.00;0.00;0.62;0.00;0.00;0.62;4.20;2.90;;;21.00;21.10;;;;;;2271792;61;20351;-63
2024/03/26 06:41:48;0.00;0.00;0.62;0.00;0.00;0.62;4.50;2.90;;;21.00;21.10;;;;;;2272017;61;20354;-66
2024/03/26 06:44:16;0.00;0.00;0.62;0.00;0.00;0.62;7.60;3.13;;;21.00;21.70;;;;;;2271612;61;20347;-64
2024/03/26 06:46:42;0.00;0.00;0.62;0.00;0.00;0.62;4.80;2.80;;;21.00;21.10;;;;;;2271733;61;20391;-66
2024/03/26 06:49:08;0.00;0.00;0.62;0.00;0.00;0.62;5.80;3.20;;;21.00;21.10;;;;;;2272074;61;20343;-66
2024/03/26 06:51:34;0.00;0.00;0.62;0.00;0.00;0.62;3.40;2.30;;;21.00;21.10;;;;;;2271391;61;20347;-65
2024/03/26 06:54:00;0.00;0.00;0.62;0.00;0.00;0.62;5.53;3.30;;;21.00;21.20;;;;;;2271363;61;20404;-66
2024/03/26 06:56:26;0.00;0.00;0.62;0.00;0.00;0.62;4.80;3.10;;;21.00;21.20;;;;;;2272014;61;20416;-66
2024/03/26 06:58:52;0.00;0.00;0.62;0.00;0.00;0.62;4.20;2.90;;;21.00;21.70;;;;;;2271595;61;20350;-66
2024/03/26 07:01:20;0.00;0.00;0.62;0.00;0.00;0.62;4.43;2.90;;;21.00;21.20;;;;;;2271439;61;20432;-65
2024/03/26 07:03:47;0.00;0.00;0.62;0.00;0.00;0.62;5.20;3.10;;;21.00;21.20;;;;;;2271712;61;20358;-65
2024/03/26 07:06:14;0.00;0.00;0.62;0.00;0.00;0.62;5.03;3.30;;;21.00;21.20;;;;;;2271879;61;20464;-65
2024/03/26 07:08:40;0.00;0.00;0.62;0.00;0.00;0.62;5.10;3.90;;;21.00;21.20;;;;;;2271901;61;20379;-65
2024/03/26 07:11:06;0.00;0.00;0.62;0.00;0.00;0.62;6.67;4.00;;;21.00;21.20;;;;;;2272012;61;20347;-65
2024/03/26 07:13:33;0.00;0.00;0.62;0.00;0.00;0.62;6.03;4.23;;;21.00;21.20;;;;;;2271594;61;20362;-65
2024/03/26 07:15:59;0.00;0.00;0.62;0.00;0.00;0.62;6.80;4.23;;;21.00;21.20;;;;;;2271300;61;20347;-66
2024/03/26 07:18:26;0.00;0.00;0.62;0.00;0.00;0.62;7.00;4.40;;;21.00;21.20;;;;;;2271322;61;20869;-65
2024/03/26 07:20:52;0.00;0.00;0.62;0.00;0.00;0.62;8.30;5.70;;;21.00;21.20;;;;;;2271725;61;20355;-65
2024/03/26 07:23:19;0.00;0.00;0.62;0.00;0.00;0.62;6.17;4.77;;;21.00;21.20;;;;;;2271336;61;20381;-66
2024/03/26 07:25:46;0.00;0.00;0.62;0.00;0.00;0.62;9.00;4.70;;;21.00;21.20;;;;;;2271458;61;20463;-65
2024/03/26 07:28:12;0.00;0.00;0.62;0.00;0.00;0.62;6.33;4.60;;;21.00;21.30;;;;;;2271705;61;20353;-65
2024/03/26 07:30:39;0.00;0.00;0.62;0.00;0.00;0.62;6.40;5.23;;;21.00;21.20;;;;;;2271756;61;20732;-66
2024/03/26 07:33:05;0.00;0.00;0.62;0.00;0.00;0.62;5.87;4.40;;;21.00;21.30;;;;;;2271642;61;20374;-65
2024/03/26 07:35:33;0.00;0.00;0.62;0.00;0.00;0.62;7.27;5.30;;;21.00;21.30;;;;;;2271778;61;20340;-65
2024/03/26 07:37:59;0.00;0.00;0.62;0.00;0.00;0.62;5.70;4.30;;;21.00;21.30;;;;;;2271399;61;20780;-66
2024/03/26 07:40:25;0.00;0.00;0.62;0.00;0.00;0.62;6.53;5.07;;;21.00;21.20;;;;;;2271973;61;20351;-65
2024/03/26 07:42:52;0.00;0.00;0.62;0.00;0.00;0.62;6.07;4.03;;;21.00;21.20;;;;;;2271535;61;20351;-65
2024/03/26 07:45:18;0.00;0.00;0.62;0.00;0.00;0.62;4.77;3.87;;;21.00;21.20;;;;;;2271680;61;20379;-65
2024/03/26 07:47:45;0.00;0.00;0.62;0.00;0.00;0.62;5.17;3.83;;;21.00;21.20;;;;;;2271719;61;20388;-65
2024/03/26 07:50:11;0.00;0.00;0.62;0.00;0.00;0.62;4.90;3.90;;;21.00;21.20;;;;;;2271777;61;20378;-63
2024/03/26 07:52:39;0.00;0.00;0.62;0.00;0.00;0.62;4.97;3.93;;;21.10;21.30;;;;;;2271436;61;20360;-65
2024/03/26 07:55:06;0.00;0.00;0.62;0.00;0.00;0.62;5.00;3.50;;;21.00;21.30;;;;;;2271745;61;20358;-66
2024/03/26 07:57:32;0.00;0.00;0.62;0.00;0.00;0.62;5.93;4.00;;;21.10;21.30;;;;;;2271733;61;20367;-66
2024/03/26 07:59:58;0.00;0.00;0.62;0.00;0.00;0.62;5.40;3.80;;;21.00;21.20;;;;;;2271657;61;20355;-65
2024/03/26 08:02:24;0.00;0.00;0.62;0.00;0.00;0.62;5.00;3.60;;;21.10;21.30;;;;;;2271143;61;20355;-65
2024/03/26 08:04:52;0.00;0.00;0.62;0.00;0.00;0.62;5.03;3.33;;;21.10;21.30;;;;;;2271782;61;20378;-66
2024/03/26 08:07:18;0.00;0.00;0.62;0.00;0.00;0.62;3.73;3.10;;;21.00;21.20;;;;;;2271528;61;20441;-66
2024/03/26 08:09:47;0.00;0.00;0.62;0.00;0.00;0.62;5.20;3.60;;;21.10;21.30;;;;;;2271660;61;20348;-65
2024/03/26 08:12:13;0.00;0.00;0.62;0.00;0.00;0.62;5.20;3.90;;;21.10;21.30;;;;;;2271539;61;20362;-66
2024/03/26 08:14:40;0.00;0.00;0.62;0.00;0.00;0.62;4.07;3.47;;;21.00;21.20;;;;;;2271419;61;20358;-66
2024/03/26 08:17:06;0.00;0.00;0.62;0.00;0.00;0.62;4.30;2.80;;;21.10;21.20;;;;;;2271637;61;20373;-66
2024/03/26 08:19:32;0.00;0.00;0.62;0.00;0.00;0.62;4.60;2.90;;;21.10;21.20;;;;;;2271527;61;20347;-66
2024/03/26 08:21:58;0.00;0.00;0.62;0.00;0.00;0.62;3.93;2.57;;;21.10;21.20;;;;;;2271656;61;20850;-66
2024/03/26 08:24:24;0.00;0.00;0.62;0.00;0.00;0.62;3.80;2.47;;;21.10;21.30;;;;;;2271711;61;20367;-65
2024/03/26 08:26:52;0.00;0.00;0.62;0.00;0.00;0.62;6.03;3.27;;;21.10;21.20;;;;;;2271324;61;20402;-66
2024/03/26 08:29:18;0.00;0.00;0.62;0.00;0.00;0.62;4.40;3.20;;;21.10;21.30;;;;;;2271538;61;20899;-65
2024/03/26 08:31:44;0.00;0.00;0.62;0.00;0.00;0.62;3.17;2.57;;;21.10;21.30;;;;;;2271677;61;20354;-65
2024/03/26 08:34:10;0.00;0.00;0.62;0.00;0.00;0.62;5.10;3.30;;;21.10;21.20;;;;;;2271486;60;20913;-66
2024/03/26 08:36:36;0.00;0.00;0.62;0.00;0.00;0.62;4.87;3.03;;;21.10;21.20;;;;;;2271517;61;20367;-66
2024/03/26 08:39:02;0.00;0.00;0.62;0.00;0.00;0.62;3.10;2.77;;;21.10;21.20;;;;;;2271903;61;20366;-66
2024/03/26 08:41:28;0.00;0.00;0.62;0.00;0.00;0.62;3.33;2.40;;;21.10;21.20;;;;;;2271803;61;20768;-66
2024/03/26 08:43:56;0.00;0.00;0.62;0.00;0.00;0.62;4.03;2.43;;;21.10;21.20;;;;;;2271361;61;20346;-65
2024/03/26 08:46:22;0.00;0.00;0.62;0.00;0.00;0.62;4.53;3.23;;;21.10;21.20;;;;;;2271697;61;20387;-66
2024/03/26 08:48:48;0.00;0.00;0.62;0.00;0.00;0.62;4.93;3.23;;;21.10;21.30;;;;;;2271868;61;20886;-65
2024/03/26 08:51:14;0.00;0.00;0.62;0.00;0.00;0.62;3.87;2.40;;;21.10;21.30;;;;;;2271292;61;20359;-66
2024/03/26 08:53:40;0.00;0.00;0.62;0.00;0.00;0.62;4.63;2.97;;;21.10;21.30;;;;;;2271663;60;20446;-66
2024/03/26 08:56:07;0.00;0.00;0.62;0.00;0.00;0.62;3.20;2.80;;;21.10;21.80;;;;;;2271792;61;20375;-66
2024/03/26 08:58:33;0.00;0.00;0.62;0.00;0.00;0.62;6.10;2.17;;;21.10;21.30;;;;;;2271451;61;20340;-66
2024/03/26 09:01:00;0.00;0.00;0.62;0.00;0.00;0.62;3.60;2.70;;;21.10;21.30;;;;;;2271694;61;20351;-66
2024/03/26 09:03:26;0.00;0.00;0.62;0.00;0.00;0.62;3.47;2.57;;;21.10;21.30;;;;;;2271616;61;20362;-66
2024/03/26 09:05:53;0.00;0.00;0.62;0.00;0.00;0.62;4.33;2.30;;;21.10;21.30;;;;;;2271475;61;20927;-66
2024/03/26 09:08:20;0.00;0.00;0.62;0.00;0.00;0.62;2.70;2.17;;;21.10;21.30;;;;;;2271892;61;20355;-66
2024/03/26 09:10:46;0.00;0.00;0.62;0.00;0.00;0.62;3.83;2.47;;;21.10;21.30;;;;;;2271751;61;20351;-66
2024/03/26 09:13:12;0.00;0.00;0.62;0.00;0.00;0.62;3.40;2.17;;;21.10;21.30;;;;;;2271402;61;20730;-65
2024/03/26 09:15:38;0.00;0.00;0.62;0.00;0.00;0.62;3.13;2.33;;;21.10;21.30;;;;;;2271638;61;20386;-66
2024/03/26 09:18:07;0.00;0.00;0.62;0.00;0.00;0.62;3.53;2.60;;;21.20;21.30;;;;;;2271702;61;20424;-65
2024/03/26 09:20:34;0.00;0.00;0.62;0.00;0.00;0.62;3.10;2.30;;;21.10;21.20;;;;;;2271636;61;20370;-66
2024/03/26 09:23:00;0.00;0.00;0.62;0.00;0.00;0.62;3.03;2.10;;;21.20;21.30;;;;;;2271739;61;20397;-66
2024/03/26 09:25:26;0.00;0.00;0.62;0.00;0.00;0.62;3.97;2.43;;;21.10;21.20;;;;;;2271521;61;20402;-66
2024/03/26 09:27:52;0.00;0.00;0.62;0.00;0.00;0.62;4.13;2.53;;;21.20;21.30;;;;;;2271221;61;20772;-66
2024/03/26 09:30:19;0.00;0.00;0.62;0.00;0.00;0.62;2.57;2.20;;;21.10;21.20;;;;;;2271822;61;20448;-65
2024/03/26 09:32:45;0.00;0.00;0.62;0.00;0.00;0.62;2.80;2.57;;;21.10;21.20;;;;;;2271493;61;20353;-66
2024/03/26 09:35:13;0.00;0.00;0.62;0.00;0.00;0.62;2.63;2.03;;;21.10;21.20;;;;;;2271472;61;20408;-66
2024/03/26 09:37:39;0.00;0.00;0.62;0.00;0.00;0.62;3.23;2.60;;;21.20;21.30;;;;;;2271648;61;20812;-66